createdAt,value
2018-11-04T07:51:42.153Z,92.30
2018-11-04T07:54:10.710Z,92.50
2018-11-04T07:56:39.160Z,92.30
2018-11-04T07:59:07.988Z,92.30
2018-11-04T08:01:37.517Z,92.20
2018-11-04T08:04:06.314Z,92.20
2018-11-04T08:06:34.969Z,92.00
2018-11-04T08:09:04.676Z,92.00
2018-11-04T08:11:33.124Z,91.70
2018-11-04T08:14:02.114Z,91.40
2018-11-04T08:16:30.600Z,91.20
2018-11-04T08:18:59.015Z,91.30
2018-11-04T08:21:27.556Z,91.50
2018-11-04T08:23:56.014Z,91.20
2018-11-04T08:26:24.460Z,91.00
2018-11-04T08:28:52.930Z,91.10
2018-11-04T08:31:21.390Z,90.80
2018-11-04T08:33:50.503Z,90.50
2018-11-04T08:36:18.949Z,90.60
2018-11-04T08:38:47.542Z,90.50
2018-11-04T08:41:15.988Z,90.40
2018-11-04T08:43:44.442Z,90.10
2018-11-04T08:46:12.886Z,90.30
2018-11-04T08:48:41.366Z,90.90
2018-11-04T08:51:09.820Z,89.80
2018-11-04T08:53:39.374Z,89.60
2018-11-04T08:56:07.846Z,89.70
2018-11-04T08:58:36.343Z,90.60
2018-11-04T09:01:04.963Z,88.90
2018-11-04T09:03:33.486Z,89.00
2018-11-04T09:06:01.943Z,89.00
2018-11-04T09:08:30.392Z,88.00
2018-11-04T09:10:58.937Z,87.70
2018-11-04T09:13:28.132Z,89.10
2018-11-04T09:15:56.612Z,92.90
2018-11-04T09:18:25.072Z,87.30
2018-11-04T09:20:53.580Z,87.10
2018-11-04T09:23:22.141Z,87.20
2018-11-04T09:25:50.627Z,84.40
2018-11-04T09:28:19.827Z,88.60
2018-11-04T09:30:48.346Z,85.00
2018-11-04T09:33:17.595Z,84.20
2018-11-04T09:35:46.333Z,86.40
2018-11-04T09:38:14.599Z,85.70
2018-11-04T09:40:43.066Z,86.00
2018-11-04T09:43:13.551Z,92.10
2018-11-04T09:45:42.023Z,86.50
2018-11-04T09:48:11.945Z,81.70
2018-11-04T09:50:41.048Z,85.50
2018-11-04T09:53:09.522Z,90.20
2018-11-04T09:55:38.021Z,87.30
2018-11-04T09:58:06.507Z,81.90
2018-11-04T10:00:34.973Z,83.30
2018-11-04T10:03:03.819Z,83.70
2018-11-04T10:05:32.276Z,84.00
2018-11-04T10:08:00.714Z,83.00
2018-11-04T10:10:29.164Z,83.10
2018-11-04T10:12:58.322Z,82.60
2018-11-04T10:15:26.852Z,83.10
2018-11-04T10:17:55.304Z,83.80
2018-11-04T10:20:23.962Z,82.90
2018-11-04T10:22:52.361Z,87.40
2018-11-04T10:25:20.848Z,83.60
2018-11-04T10:27:49.343Z,80.40
2018-11-04T10:30:17.982Z,82.80
2018-11-04T10:32:46.517Z,83.80
2018-11-04T10:35:16.272Z,82.30
2018-11-04T10:37:44.738Z,83.50
2018-11-04T10:40:13.511Z,83.00
2018-11-04T10:42:41.993Z,83.30
2018-11-04T10:45:11.218Z,83.10
2018-11-04T10:47:39.680Z,83.30
2018-11-04T10:50:10.572Z,88.20
2018-11-04T10:52:40.292Z,83.60
2018-11-04T10:55:09.882Z,81.90
2018-11-04T10:57:38.600Z,80.70
2018-11-04T11:00:14.433Z,81.60
2018-11-04T11:02:42.919Z,83.80
2018-11-04T11:05:11.416Z,81.30
2018-11-04T11:07:39.929Z,81.40
2018-11-04T11:10:09.264Z,84.10
2018-11-04T11:12:37.794Z,80.40
2018-11-04T11:15:06.694Z,78.80
2018-11-04T11:17:35.244Z,80.60
2018-11-04T11:20:03.816Z,81.70
2018-11-04T11:22:32.646Z,81.20
2018-11-04T11:25:01.112Z,82.70
2018-11-04T11:27:30.284Z,80.30
2018-11-04T11:29:58.747Z,79.60
2018-11-04T11:32:27.382Z,80.60
2018-11-04T11:34:55.916Z,78.80
2018-11-04T11:37:24.417Z,79.30
2018-11-04T11:39:53.401Z,79.00
2018-11-04T11:42:21.892Z,79.60
2018-11-04T11:44:50.416Z,80.70
2018-11-04T11:47:18.818Z,80.20
2018-11-04T11:49:47.297Z,82.80
2018-11-04T11:52:15.750Z,81.40
2018-11-04T11:54:44.190Z,81.10
2018-11-04T11:57:12.869Z,80.60
2018-11-04T11:59:41.355Z,80.80
2018-11-04T12:02:09.903Z,79.90
2018-11-04T12:04:38.717Z,81.00
2018-11-04T12:07:07.277Z,80.60
2018-11-04T12:09:36.291Z,79.90
2018-11-04T12:12:04.823Z,79.60
2018-11-04T12:14:33.863Z,78.40
2018-11-04T12:17:03.912Z,78.60
2018-11-04T12:19:32.357Z,78.10
2018-11-04T12:22:00.866Z,78.50
2018-11-04T12:24:29.340Z,79.00
2018-11-04T12:26:57.843Z,78.90
2018-11-04T12:29:26.353Z,79.40
2018-11-04T12:31:54.879Z,78.00
2018-11-04T12:34:23.330Z,78.70
2018-11-04T12:36:51.834Z,77.30
2018-11-04T12:39:21.077Z,78.80
2018-11-04T12:41:49.550Z,78.80
2018-11-04T12:44:18.112Z,77.90
2018-11-04T12:46:46.578Z,77.50
2018-11-04T12:49:15.058Z,77.00
2018-11-04T12:51:43.565Z,77.80
2018-11-04T12:54:12.045Z,76.50
2018-11-04T12:56:41.233Z,76.80
2018-11-04T12:59:09.659Z,77.30
2018-11-04T13:01:38.120Z,79.10
2018-11-04T13:04:06.608Z,78.60
2018-11-04T13:06:35.387Z,76.60
2018-11-04T13:09:04.082Z,76.30
2018-11-04T13:11:32.643Z,76.20
2018-11-04T13:14:01.044Z,75.80
2018-11-04T13:16:29.534Z,75.90
2018-11-04T13:18:58.020Z,76.50
2018-11-04T13:21:26.549Z,76.40
2018-11-04T13:23:54.940Z,76.10
2018-11-04T13:26:23.996Z,75.30
2018-11-04T13:28:53.297Z,75.60
2018-11-04T13:31:21.755Z,75.90
2018-11-04T13:33:50.776Z,76.60
2018-11-04T13:36:19.257Z,76.80
2018-11-04T13:38:47.723Z,77.40
2018-11-04T13:41:16.146Z,76.90
2018-11-04T13:43:44.614Z,74.70
2018-11-04T13:46:13.144Z,75.60
2018-11-04T13:48:41.649Z,75.90
2018-11-04T13:51:10.130Z,76.10
2018-11-04T13:53:45.219Z,76.50
2018-11-04T13:56:14.610Z,75.90
2018-11-04T13:58:43.080Z,75.70
2018-11-04T14:01:12.149Z,75.00
2018-11-04T14:03:40.592Z,76.20
2018-11-04T14:06:10.414Z,76.20
2018-11-04T14:08:38.890Z,75.70
2018-11-04T14:11:07.350Z,76.00
2018-11-04T14:13:35.842Z,75.50
2018-11-04T14:16:05.012Z,75.90
2018-11-04T14:18:33.683Z,76.10
2018-11-04T14:21:02.611Z,75.30
2018-11-04T14:23:31.143Z,75.60
2018-11-04T14:25:59.870Z,76.30
2018-11-04T14:28:28.314Z,76.80
2018-11-04T14:30:57.330Z,77.00
2018-11-04T14:33:25.756Z,77.00
2018-11-04T14:35:54.231Z,77.00
2018-11-04T14:38:22.690Z,76.80
2018-11-04T14:40:57.800Z,77.60
2018-11-04T14:43:26.902Z,77.90
2018-11-04T14:45:55.439Z,78.40
2018-11-04T14:48:23.756Z,78.40
2018-11-04T14:50:52.186Z,78.90
2018-11-04T14:53:21.283Z,79.40
2018-11-04T14:55:50.674Z,79.50
2018-11-04T14:58:19.140Z,79.60
2018-11-04T15:00:47.655Z,79.20
2018-11-04T15:03:16.051Z,79.10
2018-11-04T15:05:44.629Z,79.00
2018-11-04T15:08:13.091Z,79.10
2018-11-04T15:10:41.552Z,79.20
2018-11-04T15:13:10.047Z,79.60
2018-11-04T15:15:38.625Z,79.90
2018-11-04T15:18:07.115Z,80.30
2018-11-04T15:20:36.205Z,80.70
2018-11-04T15:23:04.678Z,81.00
2018-11-04T15:25:33.118Z,81.10
2018-11-04T15:28:01.538Z,81.50
2018-11-04T15:30:30.045Z,82.00
2018-11-04T15:32:58.548Z,82.30
2018-11-04T15:35:27.014Z,82.50
2018-11-04T15:37:57.010Z,82.90
2018-11-04T15:40:26.563Z,83.10
2018-11-04T15:42:54.949Z,83.20
2018-11-04T15:45:23.783Z,83.40
2018-11-04T15:47:52.254Z,83.70
2018-11-04T15:50:20.719Z,83.80
2018-11-04T15:52:49.413Z,84.00
2018-11-04T15:55:17.852Z,84.10
2018-11-04T15:57:46.304Z,83.90
2018-11-04T16:00:15.515Z,84.00
2018-11-04T16:02:44.075Z,84.20
2018-11-04T16:05:12.597Z,84.00
2018-11-04T16:07:41.004Z,83.90
2018-11-04T16:10:10.136Z,84.20
2018-11-04T16:12:38.987Z,84.20
2018-11-04T16:15:09.185Z,84.40
2018-11-04T16:17:38.750Z,84.60
2018-11-04T16:20:08.328Z,84.60
2018-11-04T16:22:36.966Z,84.60
2018-11-04T16:25:05.945Z,84.90
2018-11-04T16:27:34.377Z,85.10
2018-11-04T16:30:03.383Z,85.30
2018-11-04T16:32:31.833Z,85.50
2018-11-04T16:35:01.295Z,86.00
2018-11-04T16:37:29.765Z,86.10
2018-11-04T16:39:58.213Z,86.40
2018-11-04T16:42:26.789Z,86.60
2018-11-04T16:44:55.243Z,86.90
2018-11-04T16:47:24.469Z,87.10
2018-11-04T16:49:53.000Z,87.30
2018-11-04T16:52:21.399Z,87.60
2018-11-04T16:54:50.131Z,87.70
2018-11-04T16:57:19.275Z,87.90
2018-11-04T16:59:47.739Z,88.00
2018-11-04T17:02:16.194Z,88.10
2018-11-04T17:04:44.916Z,88.50
2018-11-04T17:07:13.715Z,88.70
2018-11-04T17:09:42.163Z,88.80
2018-11-04T17:12:10.881Z,88.90
2018-11-04T17:14:40.511Z,89.10
2018-11-04T17:17:09.651Z,89.20
2018-11-04T17:19:39.005Z,89.30
2018-11-04T17:22:07.489Z,89.30
2018-11-04T17:24:35.953Z,89.30
2018-11-04T17:27:05.333Z,89.30
2018-11-04T17:29:33.844Z,89.30
2018-11-04T17:32:02.354Z,89.40
2018-11-04T17:34:30.809Z,89.50
2018-11-04T17:36:59.263Z,89.50
2018-11-04T17:39:28.250Z,89.60
2018-11-04T17:41:56.737Z,89.70
2018-11-04T17:44:25.869Z,90.00
2018-11-04T17:46:54.335Z,90.00
2018-11-04T17:49:22.772Z,90.20
2018-11-04T17:51:51.298Z,90.30
2018-11-04T17:54:19.823Z,90.30
2018-11-04T17:56:49.294Z,90.40
2018-11-04T17:59:17.750Z,90.40
2018-11-04T18:01:46.267Z,90.50
2018-11-04T18:04:14.887Z,90.60
2018-11-04T18:06:43.955Z,90.60
2018-11-04T18:09:12.945Z,90.70
2018-11-04T18:11:41.442Z,90.80
2018-11-04T18:14:10.198Z,90.80
2018-11-04T18:16:38.716Z,90.90
2018-11-04T18:19:07.645Z,91.00
2018-11-04T18:21:36.360Z,91.00
2018-11-04T18:24:06.096Z,91.00
2018-11-04T18:26:34.566Z,91.10
2018-11-04T18:29:02.988Z,91.20
2018-11-04T18:31:31.426Z,91.30
2018-11-04T18:34:00.659Z,91.30
2018-11-04T18:36:29.138Z,91.40
2018-11-04T18:38:57.594Z,91.40
2018-11-04T18:41:26.058Z,91.40
2018-11-04T18:43:55.006Z,91.40
2018-11-04T18:46:23.526Z,91.50
2018-11-04T18:48:51.982Z,91.50
2018-11-04T18:51:20.471Z,91.50
2018-11-04T18:53:48.906Z,91.60
2018-11-04T18:56:18.622Z,91.60
2018-11-04T18:58:47.070Z,91.70
2018-11-04T19:01:15.593Z,91.60
2018-11-04T19:03:44.342Z,91.60
2018-11-04T19:06:13.744Z,91.70
2018-11-04T19:08:42.774Z,91.70
2018-11-04T19:11:11.306Z,91.80
2018-11-04T19:13:39.686Z,91.90
2018-11-04T19:16:08.175Z,91.90
2018-11-04T19:18:36.652Z,91.90
2018-11-04T19:21:05.239Z,91.90
2018-11-04T19:23:33.757Z,92.10
2018-11-04T19:26:02.297Z,91.80
2018-11-04T19:28:30.777Z,91.40
2018-11-04T19:30:59.244Z,91.10
2018-11-04T19:33:27.705Z,91.30
2018-11-04T19:35:56.246Z,91.80
2018-11-04T19:38:24.718Z,92.10
2018-11-04T19:40:53.299Z,92.30
2018-11-04T19:43:21.840Z,92.40
2018-11-04T19:45:50.517Z,92.50
2018-11-04T19:48:19.196Z,92.60
2018-11-04T19:50:47.691Z,92.60
2018-11-04T19:53:16.169Z,92.70
2018-11-04T19:55:44.629Z,92.70
2018-11-04T19:58:13.125Z,92.80
2018-11-04T20:00:41.748Z,92.60
2018-11-04T20:03:10.821Z,92.70
2018-11-04T20:05:39.288Z,92.80
2018-11-04T20:08:07.783Z,92.80
2018-11-04T20:10:37.581Z,92.80
2018-11-04T20:13:11.158Z,92.80
2018-11-04T20:15:39.655Z,92.90
2018-11-04T20:18:13.604Z,92.80
2018-11-04T20:20:42.164Z,92.90
2018-11-04T20:23:10.885Z,92.80
2018-11-04T20:25:44.650Z,92.90
2018-11-04T20:28:13.084Z,93.00
2018-11-04T20:30:41.576Z,93.10
2018-11-04T20:33:12.162Z,93.10
2018-11-04T20:35:40.706Z,93.10
2018-11-04T20:38:09.142Z,93.10
2018-11-04T20:40:42.842Z,93.20
2018-11-04T20:43:11.402Z,93.20
2018-11-04T20:45:39.930Z,93.20
2018-11-04T20:48:14.409Z,93.10
2018-11-04T20:50:48.978Z,93.20
2018-11-04T20:53:17.453Z,93.20
2018-11-04T20:55:52.149Z,93.30
2018-11-04T20:58:20.761Z,93.40
2018-11-04T21:00:49.080Z,93.50
2018-11-04T21:03:17.549Z,93.50
2018-11-04T21:05:46.045Z,93.50
2018-11-04T21:08:14.554Z,93.40
2018-11-04T21:10:44.737Z,93.40
2018-11-04T21:13:13.234Z,93.50
2018-11-04T21:15:41.717Z,93.50
2018-11-04T21:18:10.278Z,93.60
2018-11-04T21:20:38.828Z,93.60
2018-11-04T21:23:07.331Z,93.60
2018-11-04T21:25:36.187Z,93.60
2018-11-04T21:28:04.647Z,93.60
2018-11-04T21:30:33.074Z,93.60
2018-11-04T21:33:01.621Z,93.60
2018-11-04T21:35:31.255Z,93.60
2018-11-04T21:37:59.789Z,93.60
2018-11-04T21:40:29.250Z,93.60
2018-11-04T21:42:57.794Z,93.70
2018-11-04T21:45:26.210Z,93.60
2018-11-04T21:47:54.690Z,93.60
2018-11-04T21:50:23.198Z,93.70
2018-11-04T21:52:52.682Z,93.60
2018-11-04T21:55:22.263Z,93.60
2018-11-04T21:57:51.146Z,93.50
2018-11-04T22:00:20.328Z,93.60
2018-11-04T22:02:49.011Z,93.70
2018-11-04T22:05:17.276Z,93.70
2018-11-04T22:07:45.796Z,93.80
2018-11-04T22:10:15.428Z,93.70
2018-11-04T22:12:44.421Z,93.70
2018-11-04T22:15:12.930Z,93.90
2018-11-04T22:17:42.090Z,93.90
2018-11-04T22:20:12.122Z,93.90
2018-11-04T22:22:40.604Z,94.00
2018-11-04T22:25:09.967Z,94.00
2018-11-04T22:27:38.387Z,94.10
2018-11-04T22:30:07.730Z,94.20
2018-11-04T22:32:36.524Z,94.10
2018-11-04T22:35:05.284Z,94.10
2018-11-04T22:37:33.689Z,94.10
2018-11-04T22:40:02.123Z,94.20
2018-11-04T22:42:30.649Z,94.10
2018-11-04T22:44:59.061Z,94.20
2018-11-04T22:47:27.488Z,94.20
2018-11-04T22:49:55.899Z,94.10
2018-11-04T22:52:24.334Z,94.20
2018-11-04T22:54:53.885Z,94.10
2018-11-04T22:57:22.386Z,94.20
2018-11-04T22:59:50.822Z,94.20
2018-11-04T23:02:19.241Z,94.20
2018-11-04T23:04:53.037Z,94.20
2018-11-04T23:07:21.466Z,94.20
2018-11-04T23:09:49.886Z,94.20
2018-11-04T23:12:18.461Z,94.20
2018-11-04T23:14:46.878Z,94.30
2018-11-04T23:17:15.325Z,94.40
2018-11-04T23:19:43.780Z,94.40
2018-11-04T23:22:12.220Z,94.40
2018-11-04T23:24:40.734Z,94.70
2018-11-04T23:27:09.330Z,94.80
2018-11-04T23:29:39.674Z,94.80
2018-11-04T23:32:08.115Z,94.70
2018-11-04T23:34:36.601Z,94.60
2018-11-04T23:37:05.124Z,94.60
2018-11-04T23:39:33.568Z,94.60
2018-11-04T23:42:02.579Z,94.60
2018-11-04T23:44:31.001Z,94.60
2018-11-04T23:46:59.473Z,94.70
2018-11-04T23:49:28.669Z,94.70
2018-11-04T23:51:57.103Z,94.70
2018-11-04T23:54:25.589Z,94.70
2018-11-04T23:56:54.109Z,94.70
2018-11-04T23:59:23.259Z,94.60
